sensor_id;sensor_type;location;lat;lon;timestamp;P1;durP1;ratioP1;P2;durP2;ratioP2
60908;SDS011;46780;48.128;-1.704;2022-07-03T00:01:56;14.07;;;3.53;;
60908;SDS011;46780;48.128;-1.704;2022-07-03T00:04:23;18.95;;;4.00;;
60908;SDS011;46780;48.128;-1.704;2022-07-03T00:06:51;15.02;;;3.65;;
60908;SDS011;46780;48.128;-1.704;2022-07-03T00:09:19;17.02;;;3.75;;
60908;SDS011;46780;48.128;-1.704;2022-07-03T00:11:46;13.88;;;3.97;;
60908;SDS011;46780;48.128;-1.704;2022-07-03T00:14:17;14.75;;;3.60;;
60908;SDS011;46780;48.128;-1.704;2022-07-03T00:16:44;13.27;;;3.90;;
60908;SDS011;46780;48.128;-1.704;2022-07-03T00:19:10;16.17;;;4.38;;
60908;SDS011;46780;48.128;-1.704;2022-07-03T00:21:38;17.48;;;4.10;;
60908;SDS011;46780;48.128;-1.704;2022-07-03T00:24:13;16.08;;;4.78;;
60908;SDS011;46780;48.128;-1.704;2022-07-03T00:26:45;15.70;;;4.30;;
60908;SDS011;46780;48.128;-1.704;2022-07-03T00:29:17;16.23;;;4.05;;
60908;SDS011;46780;48.128;-1.704;2022-07-03T00:31:46;16.98;;;4.35;;
60908;SDS011;46780;48.128;-1.704;2022-07-03T00:34:14;15.43;;;3.88;;
60908;SDS011;46780;48.128;-1.704;2022-07-03T00:36:42;14.90;;;3.70;;
60908;SDS011;46780;48.128;-1.704;2022-07-03T00:39:13;15.02;;;3.90;;
60908;SDS011;46780;48.128;-1.704;2022-07-03T00:41:40;16.10;;;3.85;;
60908;SDS011;46780;48.128;-1.704;2022-07-03T00:44:09;13.52;;;3.53;;
60908;SDS011;46780;48.128;-1.704;2022-07-03T00:46:37;15.68;;;3.70;;
60908;SDS011;46780;48.128;-1.704;2022-07-03T00:49:04;13.68;;;3.55;;
60908;SDS011;46780;48.128;-1.704;2022-07-03T00:51:34;14.60;;;4.03;;
60908;SDS011;46780;48.128;-1.704;2022-07-03T00:54:03;17.55;;;3.65;;
60908;SDS011;46780;48.128;-1.704;2022-07-03T00:56:32;12.90;;;3.45;;
60908;SDS011;46780;48.128;-1.704;2022-07-03T00:59:00;16.65;;;3.80;;
60908;SDS011;46780;48.128;-1.704;2022-07-03T01:01:28;13.82;;;3.65;;
60908;SDS011;46780;48.128;-1.704;2022-07-03T01:04:01;17.38;;;3.55;;
60908;SDS011;46780;48.128;-1.704;2022-07-03T01:06:39;16.33;;;3.72;;
60908;SDS011;46780;48.128;-1.704;2022-07-03T01:09:17;12.85;;;3.33;;
60908;SDS011;46780;48.128;-1.704;2022-07-03T01:12:02;15.18;;;4.10;;
60908;SDS011;46780;48.128;-1.704;2022-07-03T01:14:34;14.25;;;4.10;;
60908;SDS011;46780;48.128;-1.704;2022-07-03T01:17:10;10.65;;;4.00;;
60908;SDS011;46780;48.128;-1.704;2022-07-03T01:19:50;17.98;;;3.70;;
60908;SDS011;46780;48.128;-1.704;2022-07-03T01:22:29;15.45;;;3.75;;
60908;SDS011;46780;48.128;-1.704;2022-07-03T01:25:02;15.07;;;3.67;;
60908;SDS011;46780;48.128;-1.704;2022-07-03T01:27:43;11.75;;;3.78;;
60908;SDS011;46780;48.128;-1.704;2022-07-03T01:30:23;17.05;;;4.15;;
60908;SDS011;46780;48.128;-1.704;2022-07-03T01:32:52;15.52;;;4.20;;
60908;SDS011;46780;48.128;-1.704;2022-07-03T01:35:26;14.35;;;4.00;;
60908;SDS011;46780;48.128;-1.704;2022-07-03T01:37:54;17.90;;;4.28;;
60908;SDS011;46780;48.128;-1.704;2022-07-03T01:40:22;16.42;;;4.05;;
60908;SDS011;46780;48.128;-1.704;2022-07-03T01:42:53;16.90;;;4.03;;
60908;SDS011;46780;48.128;-1.704;2022-07-03T01:45:22;14.90;;;3.85;;
60908;SDS011;46780;48.128;-1.704;2022-07-03T01:47:52;15.07;;;3.97;;
60908;SDS011;46780;48.128;-1.704;2022-07-03T01:50:19;12.35;;;3.45;;
60908;SDS011;46780;48.128;-1.704;2022-07-03T01:52:47;15.93;;;4.00;;
60908;SDS011;46780;48.128;-1.704;2022-07-03T01:55:14;12.32;;;3.88;;
60908;SDS011;46780;48.128;-1.704;2022-07-03T01:57:41;15.65;;;3.75;;
60908;SDS011;46780;48.128;-1.704;2022-07-03T02:00:11;15.73;;;4.00;;
60908;SDS011;46780;48.128;-1.704;2022-07-03T02:02:40;16.02;;;3.53;;
60908;SDS011;46780;48.128;-1.704;2022-07-03T02:05:09;12.88;;;3.92;;
60908;SDS011;46780;48.128;-1.704;2022-07-03T02:07:45;14.25;;;3.33;;
60908;SDS011;46780;48.128;-1.704;2022-07-03T02:10:16;14.13;;;3.50;;
60908;SDS011;46780;48.128;-1.704;2022-07-03T02:12:45;12.80;;;3.83;;
60908;SDS011;46780;48.128;-1.704;2022-07-03T02:15:18;14.95;;;3.38;;
60908;SDS011;46780;48.128;-1.704;2022-07-03T02:17:50;13.75;;;3.33;;
60908;SDS011;46780;48.128;-1.704;2022-07-03T02:20:20;10.00;;;2.90;;
60908;SDS011;46780;48.128;-1.704;2022-07-03T02:22:51;11.75;;;3.40;;
60908;SDS011;46780;48.128;-1.704;2022-07-03T02:25:25;15.25;;;3.63;;
60908;SDS011;46780;48.128;-1.704;2022-07-03T02:28:00;12.25;;;3.10;;
60908;SDS011;46780;48.128;-1.704;2022-07-03T02:30:34;11.13;;;3.13;;
60908;SDS011;46780;48.128;-1.704;2022-07-03T02:33:01;9.40;;;3.10;;
60908;SDS011;46780;48.128;-1.704;2022-07-03T02:35:30;14.38;;;2.80;;
60908;SDS011;46780;48.128;-1.704;2022-07-03T02:37:59;14.45;;;3.30;;
60908;SDS011;46780;48.128;-1.704;2022-07-03T02:40:31;12.02;;;3.53;;
60908;SDS011;46780;48.128;-1.704;2022-07-03T02:43:09;9.55;;;3.22;;
60908;SDS011;46780;48.128;-1.704;2022-07-03T02:45:44;13.10;;;2.80;;
60908;SDS011;46780;48.128;-1.704;2022-07-03T02:48:16;13.40;;;3.03;;
60908;SDS011;46780;48.128;-1.704;2022-07-03T02:50:50;14.25;;;3.05;;
60908;SDS011;46780;48.128;-1.704;2022-07-03T02:53:24;12.48;;;2.95;;
60908;SDS011;46780;48.128;-1.704;2022-07-03T02:55:58;10.55;;;3.10;;
60908;SDS011;46780;48.128;-1.704;2022-07-03T02:58:44;14.55;;;3.03;;
60908;SDS011;46780;48.128;-1.704;2022-07-03T03:01:30;10.75;;;3.00;;
60908;SDS011;46780;48.128;-1.704;2022-07-03T03:04:07;10.15;;;2.90;;
60908;SDS011;46780;48.128;-1.704;2022-07-03T03:06:41;13.68;;;3.00;;
60908;SDS011;46780;48.128;-1.704;2022-07-03T03:09:19;12.23;;;3.33;;
60908;SDS011;46780;48.128;-1.704;2022-07-03T03:11:56;11.20;;;3.03;;
60908;SDS011;46780;48.128;-1.704;2022-07-03T03:14:31;10.98;;;3.03;;
60908;SDS011;46780;48.128;-1.704;2022-07-03T03:17:09;12.27;;;3.33;;
60908;SDS011;46780;48.128;-1.704;2022-07-03T03:19:45;12.93;;;3.40;;
60908;SDS011;46780;48.128;-1.704;2022-07-03T03:22:20;13.05;;;3.30;;
60908;SDS011;46780;48.128;-1.704;2022-07-03T03:24:56;13.40;;;3.25;;
60908;SDS011;46780;48.128;-1.704;2022-07-03T03:27:26;12.57;;;3.30;;
60908;SDS011;46780;48.128;-1.704;2022-07-03T03:29:55;14.90;;;3.40;;
60908;SDS011;46780;48.128;-1.704;2022-07-03T03:32:25;9.90;;;3.50;;
60908;SDS011;46780;48.128;-1.704;2022-07-03T03:34:55;11.20;;;3.22;;
60908;SDS011;46780;48.128;-1.704;2022-07-03T03:37:22;12.65;;;3.42;;
60908;SDS011;46780;48.128;-1.704;2022-07-03T03:39:49;14.15;;;3.60;;
60908;SDS011;46780;48.128;-1.704;2022-07-03T03:42:15;16.75;;;3.50;;
60908;SDS011;46780;48.128;-1.704;2022-07-03T03:44:42;13.02;;;3.30;;
60908;SDS011;46780;48.128;-1.704;2022-07-03T03:47:08;10.75;;;3.72;;
60908;SDS011;46780;48.128;-1.704;2022-07-03T03:49:37;12.20;;;3.25;;
60908;SDS011;46780;48.128;-1.704;2022-07-03T03:52:04;13.00;;;3.90;;
60908;SDS011;46780;48.128;-1.704;2022-07-03T03:54:32;13.63;;;4.05;;
60908;SDS011;46780;48.128;-1.704;2022-07-03T03:57:13;9.30;;;3.20;;
60908;SDS011;46780;48.128;-1.704;2022-07-03T03:59:43;12.02;;;3.20;;
60908;SDS011;46780;48.128;-1.704;2022-07-03T04:02:10;14.32;;;3.42;;
60908;SDS011;46780;48.128;-1.704;2022-07-03T04:04:39;13.20;;;3.60;;
60908;SDS011;46780;48.128;-1.704;2022-07-03T04:07:06;11.25;;;3.50;;
60908;SDS011;46780;48.128;-1.704;2022-07-03T04:09:33;10.85;;;3.60;;
60908;SDS011;46780;48.128;-1.704;2022-07-03T04:12:00;11.68;;;3.20;;
60908;SDS011;46780;48.128;-1.704;2022-07-03T04:14:26;14.90;;;3.33;;
60908;SDS011;46780;48.128;-1.704;2022-07-03T04:16:53;14.77;;;3.60;;
60908;SDS011;46780;48.128;-1.704;2022-07-03T04:19:19;13.38;;;2.95;;
60908;SDS011;46780;48.128;-1.704;2022-07-03T04:21:48;10.98;;;3.30;;
60908;SDS011;46780;48.128;-1.704;2022-07-03T04:24:15;11.35;;;3.35;;
60908;SDS011;46780;48.128;-1.704;2022-07-03T04:26:42;11.10;;;3.30;;
60908;SDS011;46780;48.128;-1.704;2022-07-03T04:29:08;10.55;;;3.30;;
60908;SDS011;46780;48.128;-1.704;2022-07-03T04:31:34;13.85;;;3.38;;
60908;SDS011;46780;48.128;-1.704;2022-07-03T04:34:01;9.48;;;3.00;;
60908;SDS011;46780;48.128;-1.704;2022-07-03T04:36:28;8.45;;;2.97;;
60908;SDS011;46780;48.128;-1.704;2022-07-03T04:38:55;12.00;;;3.17;;
60908;SDS011;46780;48.128;-1.704;2022-07-03T04:41:22;14.82;;;3.33;;
60908;SDS011;46780;48.128;-1.704;2022-07-03T04:43:49;12.57;;;3.22;;
60908;SDS011;46780;48.128;-1.704;2022-07-03T04:46:15;7.65;;;2.83;;
60908;SDS011;46780;48.128;-1.704;2022-07-03T04:48:42;15.95;;;3.42;;
60908;SDS011;46780;48.128;-1.704;2022-07-03T04:51:08;9.70;;;3.08;;
60908;SDS011;46780;48.128;-1.704;2022-07-03T04:53:35;13.27;;;3.33;;
60908;SDS011;46780;48.128;-1.704;2022-07-03T04:56:02;12.23;;;3.63;;
60908;SDS011;46780;48.128;-1.704;2022-07-03T04:58:29;13.63;;;3.45;;
60908;SDS011;46780;48.128;-1.704;2022-07-03T05:00:56;9.23;;;3.00;;
60908;SDS011;46780;48.128;-1.704;2022-07-03T05:03:22;11.35;;;3.40;;
60908;SDS011;46780;48.128;-1.704;2022-07-03T05:05:49;14.40;;;3.03;;
60908;SDS011;46780;48.128;-1.704;2022-07-03T05:08:15;13.05;;;3.30;;
60908;SDS011;46780;48.128;-1.704;2022-07-03T05:10:42;11.75;;;3.80;;
60908;SDS011;46780;48.128;-1.704;2022-07-03T05:13:09;11.63;;;4.05;;
60908;SDS011;46780;48.128;-1.704;2022-07-03T05:15:36;10.88;;;3.47;;
60908;SDS011;46780;48.128;-1.704;2022-07-03T05:18:03;13.15;;;3.80;;
60908;SDS011;46780;48.128;-1.704;2022-07-03T05:20:30;15.60;;;3.60;;
60908;SDS011;46780;48.128;-1.704;2022-07-03T05:22:57;14.77;;;3.63;;
60908;SDS011;46780;48.128;-1.704;2022-07-03T05:25:25;12.98;;;3.80;;
60908;SDS011;46780;48.128;-1.704;2022-07-03T05:27:53;19.13;;;4.18;;
60908;SDS011;46780;48.128;-1.704;2022-07-03T05:30:22;17.10;;;3.92;;
60908;SDS011;46780;48.128;-1.704;2022-07-03T05:32:49;13.77;;;3.47;;
60908;SDS011;46780;48.128;-1.704;2022-07-03T05:35:16;14.48;;;3.47;;
60908;SDS011;46780;48.128;-1.704;2022-07-03T05:37:44;13.93;;;4.00;;
60908;SDS011;46780;48.128;-1.704;2022-07-03T05:40:11;14.60;;;4.10;;
60908;SDS011;46780;48.128;-1.704;2022-07-03T05:42:37;10.85;;;2.80;;
60908;SDS011;46780;48.128;-1.704;2022-07-03T05:45:04;11.00;;;2.80;;
60908;SDS011;46780;48.128;-1.704;2022-07-03T05:47:33;12.13;;;2.55;;
60908;SDS011;46780;48.128;-1.704;2022-07-03T05:50:00;16.25;;;3.13;;
60908;SDS011;46780;48.128;-1.704;2022-07-03T05:52:26;12.95;;;2.60;;
60908;SDS011;46780;48.128;-1.704;2022-07-03T05:54:53;12.32;;;2.75;;
60908;SDS011;46780;48.128;-1.704;2022-07-03T05:57:20;15.23;;;2.63;;
60908;SDS011;46780;48.128;-1.704;2022-07-03T05:59:46;11.73;;;2.50;;
60908;SDS011;46780;48.128;-1.704;2022-07-03T06:02:13;14.10;;;2.40;;
60908;SDS011;46780;48.128;-1.704;2022-07-03T06:04:41;11.10;;;2.33;;
60908;SDS011;46780;48.128;-1.704;2022-07-03T06:07:07;15.30;;;3.05;;
60908;SDS011;46780;48.128;-1.704;2022-07-03T06:09:34;12.45;;;2.80;;
60908;SDS011;46780;48.128;-1.704;2022-07-03T06:12:01;10.50;;;2.67;;
60908;SDS011;46780;48.128;-1.704;2022-07-03T06:14:27;17.25;;;2.60;;
60908;SDS011;46780;48.128;-1.704;2022-07-03T06:16:54;9.40;;;2.28;;
60908;SDS011;46780;48.128;-1.704;2022-07-03T06:19:20;11.70;;;2.40;;
60908;SDS011;46780;48.128;-1.704;2022-07-03T06:21:48;12.15;;;2.42;;
60908;SDS011;46780;48.128;-1.704;2022-07-03T06:24:15;13.38;;;2.60;;
60908;SDS011;46780;48.128;-1.704;2022-07-03T06:26:41;12.25;;;2.25;;
60908;SDS011;46780;48.128;-1.704;2022-07-03T06:29:08;15.40;;;2.53;;
60908;SDS011;46780;48.128;-1.704;2022-07-03T06:31:34;10.73;;;2.05;;
60908;SDS011;46780;48.128;-1.704;2022-07-03T06:34:01;14.13;;;2.58;;
60908;SDS011;46780;48.128;-1.704;2022-07-03T06:36:27;13.63;;;2.40;;
60908;SDS011;46780;48.128;-1.704;2022-07-03T06:38:55;12.93;;;2.25;;
60908;SDS011;46780;48.128;-1.704;2022-07-03T06:41:22;13.23;;;2.38;;
60908;SDS011;46780;48.128;-1.704;2022-07-03T06:43:49;13.60;;;2.58;;
60908;SDS011;46780;48.128;-1.704;2022-07-03T06:46:15;16.73;;;2.38;;
60908;SDS011;46780;48.128;-1.704;2022-07-03T06:48:42;14.05;;;2.58;;
60908;SDS011;46780;48.128;-1.704;2022-07-03T06:51:08;12.85;;;2.20;;
60908;SDS011;46780;48.128;-1.704;2022-07-03T06:53:35;17.90;;;2.40;;
60908;SDS011;46780;48.128;-1.704;2022-07-03T06:56:03;16.42;;;2.65;;
60908;SDS011;46780;48.128;-1.704;2022-07-03T06:58:30;9.57;;;2.05;;
60908;SDS011;46780;48.128;-1.704;2022-07-03T07:00:56;13.10;;;2.20;;
60908;SDS011;46780;48.128;-1.704;2022-07-03T07:03:23;14.27;;;2.25;;
60908;SDS011;46780;48.128;-1.704;2022-07-03T07:05:49;16.02;;;2.90;;
60908;SDS011;46780;48.128;-1.704;2022-07-03T07:08:16;11.07;;;2.30;;
60908;SDS011;46780;48.128;-1.704;2022-07-03T07:10:42;17.70;;;2.58;;
60908;SDS011;46780;48.128;-1.704;2022-07-03T07:13:10;14.32;;;2.25;;
60908;SDS011;46780;48.128;-1.704;2022-07-03T07:15:37;9.98;;;1.98;;
60908;SDS011;46780;48.128;-1.704;2022-07-03T07:18:04;16.45;;;2.60;;
60908;SDS011;46780;48.128;-1.704;2022-07-03T07:20:30;15.88;;;2.40;;
60908;SDS011;46780;48.128;-1.704;2022-07-03T07:22:57;16.17;;;2.85;;
60908;SDS011;46780;48.128;-1.704;2022-07-03T07:25:23;13.52;;;2.22;;
60908;SDS011;46780;48.128;-1.704;2022-07-03T07:27:50;12.23;;;2.28;;
60908;SDS011;46780;48.128;-1.704;2022-07-03T07:30:18;10.43;;;2.08;;
60908;SDS011;46780;48.128;-1.704;2022-07-03T07:32:45;13.00;;;2.20;;
60908;SDS011;46780;48.128;-1.704;2022-07-03T07:35:11;16.08;;;2.33;;
60908;SDS011;46780;48.128;-1.704;2022-07-03T07:37:38;17.63;;;2.20;;
60908;SDS011;46780;48.128;-1.704;2022-07-03T07:40:05;11.02;;;2.08;;
60908;SDS011;46780;48.128;-1.704;2022-07-03T07:42:33;10.05;;;2.20;;
60908;SDS011;46780;48.128;-1.704;2022-07-03T07:45:00;15.48;;;2.35;;
60908;SDS011;46780;48.128;-1.704;2022-07-03T07:47:28;17.10;;;2.70;;
60908;SDS011;46780;48.128;-1.704;2022-07-03T07:49:54;11.38;;;2.08;;
60908;SDS011;46780;48.128;-1.704;2022-07-03T07:52:21;11.23;;;2.15;;
60908;SDS011;46780;48.128;-1.704;2022-07-03T07:54:47;10.05;;;2.13;;
60908;SDS011;46780;48.128;-1.704;2022-07-03T07:57:14;12.27;;;2.20;;
60908;SDS011;46780;48.128;-1.704;2022-07-03T07:59:40;15.15;;;2.30;;
60908;SDS011;46780;48.128;-1.704;2022-07-03T08:02:07;12.30;;;2.20;;
60908;SDS011;46780;48.128;-1.704;2022-07-03T08:04:35;13.65;;;2.13;;
60908;SDS011;46780;48.128;-1.704;2022-07-03T08:07:01;13.73;;;2.00;;
60908;SDS011;46780;48.128;-1.704;2022-07-03T08:09:28;15.63;;;2.10;;
60908;SDS011;46780;48.128;-1.704;2022-07-03T08:11:55;14.40;;;2.33;;
60908;SDS011;46780;48.128;-1.704;2022-07-03T08:14:21;11.68;;;2.00;;
60908;SDS011;46780;48.128;-1.704;2022-07-03T08:16:48;18.70;;;2.08;;
60908;SDS011;46780;48.128;-1.704;2022-07-03T08:19:14;8.57;;;2.10;;
60908;SDS011;46780;48.128;-1.704;2022-07-03T08:21:42;12.75;;;2.03;;
60908;SDS011;46780;48.128;-1.704;2022-07-03T08:24:09;9.57;;;1.90;;
60908;SDS011;46780;48.128;-1.704;2022-07-03T08:26:35;11.45;;;2.08;;
60908;SDS011;46780;48.128;-1.704;2022-07-03T08:29:02;8.73;;;2.00;;
60908;SDS011;46780;48.128;-1.704;2022-07-03T08:31:28;9.20;;;1.80;;
60908;SDS011;46780;48.128;-1.704;2022-07-03T08:33:55;7.70;;;1.75;;
60908;SDS011;46780;48.128;-1.704;2022-07-03T08:36:21;8.88;;;1.70;;
60908;SDS011;46780;48.128;-1.704;2022-07-03T08:38:49;10.68;;;1.88;;
60908;SDS011;46780;48.128;-1.704;2022-07-03T08:41:15;9.40;;;1.75;;
60908;SDS011;46780;48.128;-1.704;2022-07-03T08:43:43;12.20;;;2.00;;
60908;SDS011;46780;48.128;-1.704;2022-07-03T08:46:11;8.18;;;1.70;;
60908;SDS011;46780;48.128;-1.704;2022-07-03T08:48:37;14.02;;;2.00;;
60908;SDS011;46780;48.128;-1.704;2022-07-03T08:51:05;9.18;;;1.80;;
60908;SDS011;46780;48.128;-1.704;2022-07-03T08:53:32;12.35;;;1.88;;
60908;SDS011;46780;48.128;-1.704;2022-07-03T08:56:00;7.80;;;1.73;;
60908;SDS011;46780;48.128;-1.704;2022-07-03T08:58:28;12.32;;;1.80;;
60908;SDS011;46780;48.128;-1.704;2022-07-03T09:00:56;10.73;;;1.77;;
60908;SDS011;46780;48.128;-1.704;2022-07-03T09:03:24;7.82;;;1.63;;
60908;SDS011;46780;48.128;-1.704;2022-07-03T09:05:51;9.65;;;1.67;;
60908;SDS011;46780;48.128;-1.704;2022-07-03T09:08:17;8.90;;;1.80;;
60908;SDS011;46780;48.128;-1.704;2022-07-03T09:10:44;6.70;;;1.60;;
60908;SDS011;46780;48.128;-1.704;2022-07-03T09:13:12;8.75;;;1.90;;
60908;SDS011;46780;48.128;-1.704;2022-07-03T09:18:08;6.63;;;1.50;;
60908;SDS011;46780;48.128;-1.704;2022-07-03T09:20:35;7.28;;;1.50;;
60908;SDS011;46780;48.128;-1.704;2022-07-03T09:23:13;7.47;;;1.73;;
60908;SDS011;46780;48.128;-1.704;2022-07-03T09:25:54;7.32;;;1.50;;
60908;SDS011;46780;48.128;-1.704;2022-07-03T09:28:23;8.40;;;1.38;;
60908;SDS011;46780;48.128;-1.704;2022-07-03T09:31:06;5.63;;;1.40;;
60908;SDS011;46780;48.128;-1.704;2022-07-03T09:33:32;9.23;;;1.40;;
60908;SDS011;46780;48.128;-1.704;2022-07-03T09:35:59;6.90;;;1.40;;
60908;SDS011;46780;48.128;-1.704;2022-07-03T09:38:26;7.32;;;1.50;;
60908;SDS011;46780;48.128;-1.704;2022-07-03T09:40:53;6.45;;;1.45;;
60908;SDS011;46780;48.128;-1.704;2022-07-03T09:43:21;5.13;;;1.40;;
60908;SDS011;46780;48.128;-1.704;2022-07-03T09:45:51;8.57;;;1.50;;
60908;SDS011;46780;48.128;-1.704;2022-07-03T09:48:20;8.55;;;2.40;;
60908;SDS011;46780;48.128;-1.704;2022-07-03T09:53:46;7.63;;;1.88;;
60908;SDS011;46780;48.128;-1.704;2022-07-03T09:56:14;7.82;;;1.90;;
60908;SDS011;46780;48.128;-1.704;2022-07-03T09:58:47;9.10;;;1.75;;
60908;SDS011;46780;48.128;-1.704;2022-07-03T10:01:30;7.68;;;1.60;;
60908;SDS011;46780;48.128;-1.704;2022-07-03T10:04:17;6.30;;;1.50;;
60908;SDS011;46780;48.128;-1.704;2022-07-03T10:06:46;8.18;;;1.65;;
60908;SDS011;46780;48.128;-1.704;2022-07-03T10:09:17;8.32;;;1.70;;
60908;SDS011;46780;48.128;-1.704;2022-07-03T10:11:45;6.55;;;1.45;;
60908;SDS011;46780;48.128;-1.704;2022-07-03T10:14:27;6.63;;;1.40;;
60908;SDS011;46780;48.128;-1.704;2022-07-03T10:17:27;9.52;;;1.60;;
60908;SDS011;46780;48.128;-1.704;2022-07-03T10:19:57;8.63;;;1.40;;
60908;SDS011;46780;48.128;-1.704;2022-07-03T10:22:39;8.35;;;1.35;;
60908;SDS011;46780;48.128;-1.704;2022-07-03T10:25:11;6.65;;;1.20;;
60908;SDS011;46780;48.128;-1.704;2022-07-03T10:27:41;11.15;;;1.50;;
60908;SDS011;46780;48.128;-1.704;2022-07-03T10:30:11;7.85;;;1.50;;
60908;SDS011;46780;48.128;-1.704;2022-07-03T10:35:10;4.95;;;1.50;;
60908;SDS011;46780;48.128;-1.704;2022-07-03T10:37:57;4.38;;;1.30;;
60908;SDS011;46780;48.128;-1.704;2022-07-03T10:41:05;8.60;;;1.55;;
60908;SDS011;46780;48.128;-1.704;2022-07-03T10:43:57;8.48;;;1.48;;
60908;SDS011;46780;48.128;-1.704;2022-07-03T10:46:52;8.98;;;1.60;;
60908;SDS011;46780;48.128;-1.704;2022-07-03T10:49:42;4.30;;;1.27;;
60908;SDS011;46780;48.128;-1.704;2022-07-03T10:52:33;5.30;;;1.45;;
60908;SDS011;46780;48.128;-1.704;2022-07-03T10:55:17;7.45;;;1.70;;
60908;SDS011;46780;48.128;-1.704;2022-07-03T10:58:06;7.03;;;1.50;;
60908;SDS011;46780;48.128;-1.704;2022-07-03T11:00:56;9.10;;;1.80;;
60908;SDS011;46780;48.128;-1.704;2022-07-03T11:09:41;7.22;;;2.00;;
60908;SDS011;46780;48.128;-1.704;2022-07-03T11:12:10;7.30;;;1.48;;
60908;SDS011;46780;48.128;-1.704;2022-07-03T11:14:42;5.85;;;1.45;;
60908;SDS011;46780;48.128;-1.704;2022-07-03T11:17:16;4.05;;;1.10;;
60908;SDS011;46780;48.128;-1.704;2022-07-03T11:22:21;6.70;;;1.52;;
60908;SDS011;46780;48.128;-1.704;2022-07-03T11:24:54;8.20;;;1.63;;
60908;SDS011;46780;48.128;-1.704;2022-07-03T11:27:25;10.27;;;2.40;;
60908;SDS011;46780;48.128;-1.704;2022-07-03T11:29:56;7.28;;;1.60;;
60908;SDS011;46780;48.128;-1.704;2022-07-03T11:32:43;4.60;;;1.30;;
60908;SDS011;46780;48.128;-1.704;2022-07-03T11:38:23;11.70;;;4.15;;
60908;SDS011;46780;48.128;-1.704;2022-07-03T11:40:59;6.32;;;1.70;;
60908;SDS011;46780;48.128;-1.704;2022-07-03T11:43:30;8.02;;;1.60;;
60908;SDS011;46780;48.128;-1.704;2022-07-03T11:45:58;7.63;;;1.50;;
60908;SDS011;46780;48.128;-1.704;2022-07-03T11:48:26;5.90;;;1.50;;
60908;SDS011;46780;48.128;-1.704;2022-07-03T11:50:58;6.95;;;1.52;;
60908;SDS011;46780;48.128;-1.704;2022-07-03T11:53:28;6.93;;;1.63;;
60908;SDS011;46780;48.128;-1.704;2022-07-03T11:55:56;7.40;;;1.30;;
60908;SDS011;46780;48.128;-1.704;2022-07-03T11:58:24;6.80;;;1.50;;
60908;SDS011;46780;48.128;-1.704;2022-07-03T12:00:52;4.80;;;1.25;;
60908;SDS011;46780;48.128;-1.704;2022-07-03T12:03:23;7.78;;;1.65;;
60908;SDS011;46780;48.128;-1.704;2022-07-03T12:05:51;7.55;;;1.70;;
60908;SDS011;46780;48.128;-1.704;2022-07-03T12:08:28;7.63;;;2.08;;
60908;SDS011;46780;48.128;-1.704;2022-07-03T12:10:56;6.05;;;1.95;;
60908;SDS011;46780;48.128;-1.704;2022-07-03T12:13:25;10.10;;;2.07;;
60908;SDS011;46780;48.128;-1.704;2022-07-03T12:15:52;7.45;;;1.75;;
60908;SDS011;46780;48.128;-1.704;2022-07-03T12:18:19;8.93;;;2.60;;
60908;SDS011;46780;48.128;-1.704;2022-07-03T12:20:46;8.43;;;2.33;;
60908;SDS011;46780;48.128;-1.704;2022-07-03T12:23:13;10.52;;;1.83;;
60908;SDS011;46780;48.128;-1.704;2022-07-03T12:25:41;7.03;;;1.50;;
60908;SDS011;46780;48.128;-1.704;2022-07-03T12:28:08;7.97;;;1.70;;
60908;SDS011;46780;48.128;-1.704;2022-07-03T12:30:35;8.10;;;2.30;;
60908;SDS011;46780;48.128;-1.704;2022-07-03T12:33:03;6.40;;;1.90;;
60908;SDS011;46780;48.128;-1.704;2022-07-03T12:35:31;3.25;;;1.40;;
60908;SDS011;46780;48.128;-1.704;2022-07-03T12:37:58;8.32;;;1.75;;
60908;SDS011;46780;48.128;-1.704;2022-07-03T12:40:25;6.97;;;1.92;;
60908;SDS011;46780;48.128;-1.704;2022-07-03T12:42:54;10.02;;;1.42;;
60908;SDS011;46780;48.128;-1.704;2022-07-03T12:45:21;6.32;;;1.38;;
60908;SDS011;46780;48.128;-1.704;2022-07-03T12:50:45;5.80;;;1.48;;
60908;SDS011;46780;48.128;-1.704;2022-07-03T12:55:51;7.20;;;1.48;;
60908;SDS011;46780;48.128;-1.704;2022-07-03T12:58:21;6.78;;;1.40;;
60908;SDS011;46780;48.128;-1.704;2022-07-03T13:00:49;4.60;;;1.50;;
60908;SDS011;46780;48.128;-1.704;2022-07-03T13:03:25;7.50;;;1.40;;
60908;SDS011;46780;48.128;-1.704;2022-07-03T13:05:52;7.07;;;1.58;;
60908;SDS011;46780;48.128;-1.704;2022-07-03T13:08:19;6.70;;;1.67;;
60908;SDS011;46780;48.128;-1.704;2022-07-03T13:10:53;5.38;;;1.33;;
60908;SDS011;46780;48.128;-1.704;2022-07-03T13:13:22;6.00;;;1.33;;
60908;SDS011;46780;48.128;-1.704;2022-07-03T13:15:49;6.90;;;1.70;;
60908;SDS011;46780;48.128;-1.704;2022-07-03T13:18:16;6.05;;;1.45;;
60908;SDS011;46780;48.128;-1.704;2022-07-03T13:20:44;8.20;;;1.83;;
60908;SDS011;46780;48.128;-1.704;2022-07-03T13:23:11;8.70;;;1.70;;
60908;SDS011;46780;48.128;-1.704;2022-07-03T13:25:38;7.50;;;1.55;;
60908;SDS011;46780;48.128;-1.704;2022-07-03T13:28:07;8.88;;;1.63;;
60908;SDS011;46780;48.128;-1.704;2022-07-03T13:30:35;7.78;;;1.52;;
60908;SDS011;46780;48.128;-1.704;2022-07-03T13:33:03;9.13;;;1.70;;
60908;SDS011;46780;48.128;-1.704;2022-07-03T13:35:30;6.35;;;1.60;;
60908;SDS011;46780;48.128;-1.704;2022-07-03T13:37:57;9.70;;;1.83;;
60908;SDS011;46780;48.128;-1.704;2022-07-03T13:40:24;8.85;;;1.60;;
60908;SDS011;46780;48.128;-1.704;2022-07-03T13:42:51;7.93;;;1.70;;
60908;SDS011;46780;48.128;-1.704;2022-07-03T13:45:18;9.85;;;1.90;;
60908;SDS011;46780;48.128;-1.704;2022-07-03T13:47:46;4.65;;;1.55;;
60908;SDS011;46780;48.128;-1.704;2022-07-03T13:50:13;8.27;;;1.80;;
60908;SDS011;46780;48.128;-1.704;2022-07-03T13:52:39;6.22;;;1.90;;
60908;SDS011;46780;48.128;-1.704;2022-07-03T13:55:06;8.40;;;1.70;;
60908;SDS011;46780;48.128;-1.704;2022-07-03T13:57:33;7.03;;;1.50;;
60908;SDS011;46780;48.128;-1.704;2022-07-03T14:00:00;9.52;;;1.80;;
60908;SDS011;46780;48.128;-1.704;2022-07-03T14:02:26;7.65;;;1.90;;
60908;SDS011;46780;48.128;-1.704;2022-07-03T14:04:54;8.90;;;1.95;;
60908;SDS011;46780;48.128;-1.704;2022-07-03T14:07:21;6.38;;;1.70;;
60908;SDS011;46780;48.128;-1.704;2022-07-03T14:09:47;9.02;;;1.95;;
60908;SDS011;46780;48.128;-1.704;2022-07-03T14:12:14;6.70;;;1.50;;
60908;SDS011;46780;48.128;-1.704;2022-07-03T14:14:40;7.75;;;1.60;;
60908;SDS011;46780;48.128;-1.704;2022-07-03T14:17:07;12.88;;;2.03;;
60908;SDS011;46780;48.128;-1.704;2022-07-03T14:19:33;17.13;;;2.13;;
60908;SDS011;46780;48.128;-1.704;2022-07-03T14:22:01;11.43;;;2.20;;
60908;SDS011;46780;48.128;-1.704;2022-07-03T14:24:28;10.65;;;2.10;;
60908;SDS011;46780;48.128;-1.704;2022-07-03T14:26:54;7.88;;;1.92;;
60908;SDS011;46780;48.128;-1.704;2022-07-03T14:29:21;10.65;;;2.33;;
60908;SDS011;46780;48.128;-1.704;2022-07-03T14:31:48;10.80;;;2.10;;
60908;SDS011;46780;48.128;-1.704;2022-07-03T14:34:14;11.32;;;2.35;;
60908;SDS011;46780;48.128;-1.704;2022-07-03T14:36:41;11.05;;;2.10;;
60908;SDS011;46780;48.128;-1.704;2022-07-03T14:39:09;11.75;;;2.45;;
60908;SDS011;46780;48.128;-1.704;2022-07-03T14:41:35;11.07;;;2.30;;
60908;SDS011;46780;48.128;-1.704;2022-07-03T14:44:02;12.63;;;2.60;;
60908;SDS011;46780;48.128;-1.704;2022-07-03T14:46:29;10.50;;;2.53;;
60908;SDS011;46780;48.128;-1.704;2022-07-03T14:48:55;26.25;;;5.30;;
60908;SDS011;46780;48.128;-1.704;2022-07-03T14:51:22;11.50;;;2.60;;
60908;SDS011;46780;48.128;-1.704;2022-07-03T14:53:49;25.10;;;4.60;;
60908;SDS011;46780;48.128;-1.704;2022-07-03T14:56:18;14.73;;;3.00;;
60908;SDS011;46780;48.128;-1.704;2022-07-03T14:58:45;12.52;;;2.83;;
60908;SDS011;46780;48.128;-1.704;2022-07-03T15:01:13;14.20;;;3.00;;
60908;SDS011;46780;48.128;-1.704;2022-07-03T15:03:43;9.63;;;2.47;;
60908;SDS011;46780;48.128;-1.704;2022-07-03T15:06:19;10.32;;;2.28;;